createdAt,value
2022-10-12T00:01:11.543Z,98348.85
2022-10-12T00:03:39.966Z,98349.62
2022-10-12T00:06:14.605Z,98348.31
2022-10-12T00:08:45.521Z,98348.92
2022-10-12T00:11:18.707Z,98349.55
2022-10-12T00:13:46.895Z,98348.78
2022-10-12T00:16:16.920Z,98347.48
2022-10-12T00:18:45.291Z,98350.25
2022-10-12T00:21:16.182Z,98350.95
2022-10-12T00:23:45.228Z,98351.95
2022-10-12T00:26:21.632Z,98352.25
2022-10-12T00:28:56.301Z,98353.02
2022-10-12T00:31:25.217Z,98356.77
2022-10-12T00:33:53.749Z,98351.98
2022-10-12T00:36:21.991Z,98347.95
2022-10-12T00:38:52.004Z,98347.54
2022-10-12T00:41:24.520Z,98347.05
2022-10-12T00:43:57.880Z,98345.55
2022-10-12T00:46:42.781Z,98343.75
2022-10-12T00:49:14.648Z,98343.67
2022-10-12T00:51:46.498Z,98343.09
2022-10-12T00:54:21.449Z,98344.48
2022-10-12T00:56:53.772Z,98344.99
2022-10-12T00:59:29.030Z,98339.56
2022-10-12T01:01:57.726Z,98342.88
2022-10-12T01:04:26.438Z,98347.09
2022-10-12T01:06:54.417Z,98344.64
2022-10-12T01:09:22.348Z,98344.61
2022-10-12T01:11:50.255Z,98341.12
2022-10-12T01:14:18.817Z,98342.91
2022-10-12T01:16:55.071Z,98344.27
2022-10-12T01:20:10.352Z,98348.25
2022-10-12T01:23:04.405Z,98351.54
2022-10-12T01:25:51.734Z,98349.54
2022-10-12T01:28:47.170Z,98350.82
2022-10-12T01:31:35.990Z,98345.57
2022-10-12T01:34:11.566Z,98347.89
2022-10-12T01:36:44.902Z,98351.27
2022-10-12T01:39:20.523Z,98346.00
2022-10-12T01:41:54.362Z,98347.38
2022-10-12T01:44:24.238Z,98349.45
2022-10-12T01:46:56.196Z,98349.85
2022-10-12T01:49:29.408Z,98349.29
2022-10-12T01:52:29.800Z,98349.28
2022-10-12T01:55:18.492Z,98353.98
2022-10-12T01:58:22.604Z,98355.35
2022-10-12T02:01:25.037Z,98354.52
2022-10-12T02:04:11.346Z,98356.71
2022-10-12T02:06:49.963Z,98356.80
2022-10-12T02:09:20.655Z,98358.51
2022-10-12T02:11:53.573Z,98355.92
2022-10-12T02:14:27.598Z,98357.56
2022-10-12T02:17:00.276Z,98364.69
2022-10-12T02:19:33.107Z,98361.33
2022-10-12T02:22:04.324Z,98357.36
2022-10-12T02:24:35.613Z,98357.12
2022-10-12T02:27:05.178Z,98354.79
2022-10-12T02:29:38.819Z,98356.94
2022-10-12T02:32:35.721Z,98360.55
2022-10-12T02:35:17.742Z,98358.65
2022-10-12T02:37:57.975Z,98354.48
2022-10-12T02:40:37.958Z,98353.82
2022-10-12T02:43:29.977Z,98354.59
2022-10-12T02:46:00.818Z,98353.95
2022-10-12T02:48:29.991Z,98354.80
2022-10-12T02:50:59.355Z,98356.79
2022-10-12T02:53:30.579Z,98359.32
2022-10-12T02:56:08.153Z,98366.25
2022-10-12T02:58:36.688Z,98363.40
2022-10-12T03:01:05.339Z,98365.43
2022-10-12T03:03:33.414Z,98366.10
2022-10-12T03:06:01.380Z,98367.04
2022-10-12T03:08:29.510Z,98370.18
2022-10-12T03:11:05.877Z,98366.99
2022-10-12T03:13:34.073Z,98369.09
2022-10-12T03:16:07.641Z,98370.04
2022-10-12T03:18:36.238Z,98368.76
2022-10-12T03:21:04.602Z,98373.14
2022-10-12T03:23:34.664Z,98376.20
2022-10-12T03:26:03.698Z,98381.39
2022-10-12T03:28:32.836Z,98382.29
2022-10-12T03:31:02.027Z,98384.42
2022-10-12T03:33:30.111Z,98384.15
2022-10-12T03:35:58.352Z,98385.45
2022-10-12T03:38:26.303Z,98385.93
2022-10-12T03:40:57.292Z,98382.39
2022-10-12T03:43:25.352Z,98381.23
2022-10-12T03:45:54.322Z,98380.88
2022-10-12T03:48:22.485Z,98382.00
2022-10-12T03:50:52.882Z,98381.13
2022-10-12T03:53:21.125Z,98380.64
2022-10-12T03:55:51.096Z,98381.14
2022-10-12T03:58:19.051Z,98382.20
2022-10-12T04:00:47.116Z,98382.94
2022-10-12T04:03:15.240Z,98381.04
2022-10-12T04:05:43.729Z,98388.67
2022-10-12T04:08:11.619Z,98391.29
2022-10-12T04:10:39.715Z,98389.88
2022-10-12T04:13:07.871Z,98386.52
2022-10-12T04:15:35.863Z,98389.37
2022-10-12T04:18:04.820Z,98393.02
2022-10-12T04:20:34.126Z,98390.77
2022-10-12T04:23:02.034Z,98393.30
2022-10-12T04:25:33.432Z,98397.08
2022-10-12T04:28:01.512Z,98399.98
2022-10-12T04:30:29.565Z,98399.85
2022-10-12T04:32:57.829Z,98396.23
2022-10-12T04:35:27.890Z,98396.48
2022-10-12T04:37:57.631Z,98398.45
2022-10-12T04:40:25.883Z,98400.11
2022-10-12T04:42:56.057Z,98399.55
2022-10-12T04:45:26.136Z,98401.67
2022-10-12T04:47:54.010Z,98401.42
2022-10-12T04:50:26.208Z,98405.60
2022-10-12T04:52:57.167Z,98403.29
2022-10-12T04:55:26.000Z,98401.95
2022-10-12T04:57:54.197Z,98400.36
2022-10-12T05:00:22.710Z,98402.89
2022-10-12T05:02:51.011Z,98402.84
2022-10-12T05:05:20.068Z,98403.20
2022-10-12T05:07:49.080Z,98403.08
2022-10-12T05:10:18.294Z,98401.95
2022-10-12T05:12:46.739Z,98400.96
2022-10-12T05:15:14.763Z,98405.20
2022-10-12T05:17:42.792Z,98408.01
2022-10-12T05:20:11.568Z,98408.97
2022-10-12T05:22:47.420Z,98409.24
2022-10-12T05:25:18.615Z,98410.11
2022-10-12T05:27:46.875Z,98412.96
2022-10-12T05:30:15.147Z,98416.35
2022-10-12T05:32:44.766Z,98417.83
2022-10-12T05:35:12.673Z,98418.81
2022-10-12T05:37:40.815Z,98422.10
2022-10-12T05:40:10.031Z,98421.64
2022-10-12T05:42:38.490Z,98426.08
2022-10-12T05:45:07.779Z,98428.12
2022-10-12T05:47:36.902Z,98426.79
2022-10-12T05:50:06.728Z,98426.44
2022-10-12T05:52:36.545Z,98429.98
2022-10-12T05:55:05.692Z,98431.13
2022-10-12T05:57:39.024Z,98430.95
2022-10-12T06:00:13.415Z,98432.42
2022-10-12T06:02:42.216Z,98437.02
2022-10-12T06:05:12.099Z,98435.48
2022-10-12T06:07:44.262Z,98437.31
2022-10-12T06:10:13.071Z,98438.81
2022-10-12T06:12:43.720Z,98442.45
2022-10-12T06:15:12.898Z,98448.25
2022-10-12T06:17:43.997Z,98450.90
2022-10-12T06:20:13.817Z,98450.28
2022-10-12T06:22:42.448Z,98449.94
2022-10-12T06:25:10.537Z,98449.54
2022-10-12T06:27:38.535Z,98448.48
2022-10-12T06:30:09.425Z,98455.30
2022-10-12T06:32:39.582Z,98452.80
2022-10-12T06:35:11.967Z,98445.73
2022-10-12T06:37:51.535Z,98446.34
2022-10-12T06:40:21.561Z,98446.49
2022-10-12T06:42:54.866Z,98445.59
2022-10-12T06:45:37.119Z,98446.88
2022-10-12T06:48:06.668Z,98451.95
2022-10-12T06:50:37.270Z,98454.01
2022-10-12T06:53:08.982Z,98452.77
2022-10-12T06:55:40.201Z,98449.94
2022-10-12T06:58:15.414Z,98450.62
2022-10-12T07:01:08.394Z,98452.91
2022-10-12T07:03:48.098Z,98455.16
2022-10-12T07:06:18.949Z,98452.73
2022-10-12T07:09:22.493Z,98452.01
2022-10-12T07:12:11.065Z,98457.52
2022-10-12T07:14:41.396Z,98453.86
2022-10-12T07:17:10.904Z,98451.94
2022-10-12T07:19:40.351Z,98452.83
2022-10-12T07:22:10.992Z,98451.27
2022-10-12T07:24:39.761Z,98454.09
2022-10-12T07:27:11.276Z,98454.05
2022-10-12T07:29:41.142Z,98455.68
2022-10-12T07:32:09.598Z,98451.38
2022-10-12T07:34:49.476Z,98445.04
2022-10-12T07:37:23.708Z,98445.89
2022-10-12T07:39:58.679Z,98444.11
2022-10-12T07:42:27.141Z,98435.65
2022-10-12T07:44:55.718Z,98432.09
2022-10-12T07:47:27.327Z,98428.90
2022-10-12T07:50:02.650Z,98426.52
2022-10-12T07:52:59.582Z,98429.97
2022-10-12T07:55:36.218Z,98425.80
2022-10-12T07:58:12.985Z,98423.98
2022-10-12T08:00:49.740Z,98422.11
2022-10-12T08:03:21.318Z,98421.14
2022-10-12T08:06:00.894Z,98420.23
2022-10-12T08:08:30.838Z,98421.13
2022-10-12T08:11:14.392Z,98418.04
2022-10-12T08:14:10.681Z,98417.17
2022-10-12T08:16:45.439Z,98417.59
2022-10-12T08:19:25.473Z,98415.34
2022-10-12T08:22:17.771Z,98411.14
2022-10-12T08:24:51.771Z,98414.67
2022-10-12T08:27:29.584Z,98414.27
2022-10-12T08:32:46.160Z,98409.98
2022-10-12T08:35:15.013Z,98412.29
2022-10-12T08:37:43.813Z,98413.16
2022-10-12T08:40:53.119Z,98414.55
2022-10-12T08:43:48.606Z,98413.73
2022-10-12T08:46:22.251Z,98411.36
2022-10-12T08:49:24.719Z,98409.38
2022-10-12T08:51:57.782Z,98408.19
2022-10-12T08:54:48.456Z,98410.33
2022-10-12T08:57:21.457Z,98410.99
2022-10-12T08:59:55.411Z,98405.95
2022-10-12T09:03:00.734Z,98404.08
2022-10-12T09:05:50.353Z,98404.94
2022-10-12T09:08:27.435Z,98405.00
2022-10-12T09:11:22.384Z,98404.50
2022-10-12T09:14:07.833Z,98401.33
2022-10-12T09:16:43.062Z,98399.23
2022-10-12T09:19:25.582Z,98395.34
2022-10-12T09:21:59.475Z,98388.17
2022-10-12T09:24:46.420Z,98388.16
2022-10-12T09:31:23.175Z,98393.05
2022-10-12T09:33:59.247Z,98391.61
2022-10-12T09:36:36.665Z,98389.15
2022-10-12T09:39:14.322Z,98392.80
2022-10-12T09:42:31.591Z,98396.64
2022-10-12T09:45:19.490Z,98397.28
2022-10-12T09:51:59.509Z,98392.48
2022-10-12T09:54:38.982Z,98393.95
2022-10-12T09:57:20.038Z,98392.58
2022-10-12T10:03:41.928Z,98386.64
2022-10-12T10:04:23.741Z,98388.13
2022-10-12T10:06:47.227Z,98382.43
2022-10-12T10:09:36.622Z,98384.29
2022-10-12T10:12:40.704Z,98384.33
2022-10-12T10:15:53.427Z,98379.95
2022-10-12T10:19:12.480Z,98380.20
2022-10-12T10:22:13.790Z,98377.09
2022-10-12T10:24:45.051Z,98376.66
2022-10-12T10:27:38.115Z,98373.83
2022-10-12T10:30:33.973Z,98375.40
2022-10-12T10:33:19.918Z,98372.83
2022-10-12T10:36:22.241Z,98372.02
2022-10-12T10:39:11.423Z,98372.49
2022-10-12T10:41:45.412Z,98369.38
2022-10-12T10:44:47.378Z,98362.84
2022-10-12T10:47:20.714Z,98362.31
2022-10-12T10:49:56.043Z,98362.33
2022-10-12T10:52:40.010Z,98358.33
2022-10-12T10:55:14.091Z,98356.27
2022-10-12T10:58:11.907Z,98352.88
2022-10-12T11:01:02.520Z,98355.66
2022-10-12T11:03:54.034Z,98352.23
2022-10-12T11:06:47.767Z,98350.65
2022-10-12T11:09:24.780Z,98346.74
2022-10-12T11:12:04.839Z,98342.86
2022-10-12T11:14:49.375Z,98343.73
2022-10-12T11:17:22.255Z,98346.52
2022-10-12T11:20:00.583Z,98347.80
2022-10-12T11:22:40.691Z,98346.45
2022-10-12T11:25:39.898Z,98346.73
2022-10-12T11:28:11.392Z,98336.13
2022-10-12T11:30:44.380Z,98332.59
2022-10-12T11:33:23.141Z,98327.63
2022-10-12T11:35:55.234Z,98326.92
2022-10-12T11:38:25.058Z,98326.72
2022-10-12T11:41:18.948Z,98322.73
2022-10-12T11:44:20.754Z,98318.86
2022-10-12T11:47:04.495Z,98320.64
2022-10-12T11:50:02.665Z,98318.94
2022-10-12T11:52:47.145Z,98319.67
2022-10-12T11:55:56.187Z,98318.02
2022-10-12T11:58:48.934Z,98317.81
2022-10-12T12:01:22.798Z,98319.86
2022-10-12T12:04:36.359Z,98318.59
2022-10-12T12:07:29.868Z,98316.94
2022-10-12T12:10:00.776Z,98315.73
2022-10-12T12:12:30.164Z,98314.70
2022-10-12T12:15:07.797Z,98312.30
2022-10-12T12:17:36.338Z,98313.41
2022-10-12T12:20:44.001Z,98314.16
2022-10-12T12:23:43.664Z,98317.48
2022-10-12T12:26:16.914Z,98318.05
2022-10-12T12:28:53.063Z,98316.77
2022-10-12T12:31:23.605Z,98316.78
2022-10-12T12:34:17.826Z,98316.46
2022-10-12T12:36:50.083Z,98315.08
2022-10-12T12:39:33.617Z,98320.48
2022-10-12T12:42:08.766Z,98327.80
2022-10-12T12:44:38.596Z,98326.52
2022-10-12T12:47:40.313Z,98332.55
2022-10-12T12:50:35.667Z,98329.67
2022-10-12T12:53:18.232Z,98331.73
2022-10-12T12:55:59.270Z,98328.03
2022-10-12T12:58:44.691Z,98324.67
2022-10-12T13:01:48.558Z,98326.73
2022-10-12T13:04:40.244Z,98328.90
2022-10-12T13:07:28.001Z,98330.61
2022-10-12T13:10:22.886Z,98334.31
2022-10-12T13:13:21.347Z,98331.35
2022-10-12T13:16:36.565Z,98326.95
2022-10-12T13:19:10.098Z,98326.98
2022-10-12T13:21:47.572Z,98325.85
2022-10-12T13:24:22.543Z,98327.45
2022-10-12T13:27:05.329Z,98327.38
2022-10-12T13:29:47.451Z,98335.45
2022-10-12T13:33:17.446Z,98332.64
2022-10-12T13:35:56.510Z,98335.74
2022-10-12T13:38:32.186Z,98333.60
2022-10-12T13:41:26.256Z,98331.92
2022-10-12T13:44:07.942Z,98331.23
2022-10-12T13:46:46.144Z,98326.97
2022-10-12T13:49:22.965Z,98327.16
2022-10-12T13:52:22.939Z,98331.39
2022-10-12T13:55:04.250Z,98337.05
2022-10-12T13:57:50.517Z,98340.33
2022-10-12T14:00:22.876Z,98341.64
2022-10-12T14:03:03.638Z,98342.73
2022-10-12T14:05:34.810Z,98340.03
2022-10-12T14:08:19.727Z,98344.86
2022-10-12T14:10:49.634Z,98349.52
2022-10-12T14:13:33.919Z,98345.77
2022-10-12T14:16:06.977Z,98343.60
2022-10-12T14:18:46.320Z,98345.89
2022-10-12T14:21:33.268Z,98344.90
2022-10-12T14:24:19.074Z,98343.34
2022-10-12T14:27:03.893Z,98345.23
2022-10-12T14:29:33.428Z,98347.62
2022-10-12T14:32:10.645Z,98346.82
2022-10-12T14:34:49.658Z,98346.10
2022-10-12T14:37:19.016Z,98346.27
2022-10-12T14:39:50.432Z,98349.97
2022-10-12T14:42:24.985Z,98349.38
2022-10-12T14:44:56.679Z,98352.98
2022-10-12T14:47:41.871Z,98352.41
2022-10-12T14:50:18.406Z,98358.79
2022-10-12T14:52:54.989Z,98350.31
2022-10-12T14:55:30.505Z,98355.47
2022-10-12T14:58:00.857Z,98362.71
2022-10-12T15:00:34.990Z,98360.45
2022-10-12T15:03:05.146Z,98362.40
2022-10-12T15:05:34.839Z,98362.86
2022-10-12T15:08:09.576Z,98366.08
2022-10-12T15:10:37.976Z,98367.77
2022-10-12T15:13:06.321Z,98369.52
2022-10-12T15:15:44.968Z,98367.66
2022-10-12T15:18:14.635Z,98365.56
2022-10-12T15:20:46.889Z,98362.66
2022-10-12T15:23:21.046Z,98367.48
2022-10-12T15:25:56.846Z,98371.17
2022-10-12T15:28:29.888Z,98371.07
2022-10-12T15:33:47.828Z,98372.41
2022-10-12T15:36:15.841Z,98373.91
2022-10-12T15:38:44.076Z,98375.14
2022-10-12T15:41:18.954Z,98375.02
2022-10-12T15:43:47.690Z,98377.19
2022-10-12T15:46:27.691Z,98380.92
2022-10-12T15:49:06.114Z,98383.92
2022-10-12T15:51:46.543Z,98385.00
2022-10-12T15:54:15.186Z,98392.84
2022-10-12T15:56:43.479Z,98398.84
2022-10-12T15:59:15.154Z,98399.31
2022-10-12T16:01:43.559Z,98397.77
2022-10-12T16:04:15.438Z,98397.55
2022-10-12T16:06:46.669Z,98397.86
2022-10-12T16:09:17.815Z,98402.41
2022-10-12T16:11:50.144Z,98407.92
2022-10-12T16:14:18.428Z,98412.19
2022-10-12T16:16:46.524Z,98413.58
2022-10-12T16:19:14.782Z,98416.73
2022-10-12T16:21:43.025Z,98418.14
2022-10-12T16:24:11.303Z,98417.27
2022-10-12T16:26:44.753Z,98418.26
2022-10-12T16:29:13.627Z,98421.61
2022-10-12T16:34:13.411Z,98427.15
2022-10-12T16:36:41.711Z,98422.42
2022-10-12T16:39:11.465Z,98424.72
2022-10-12T16:41:39.520Z,98425.22
2022-10-12T16:44:08.283Z,98424.77
2022-10-12T16:46:39.556Z,98427.47
2022-10-12T16:49:09.224Z,98428.77
2022-10-12T16:51:39.806Z,98430.85
2022-10-12T16:54:08.184Z,98429.64
2022-10-12T16:56:39.366Z,98427.51
2022-10-12T16:59:08.165Z,98428.73
2022-10-12T17:01:39.263Z,98426.56
2022-10-12T17:04:15.870Z,98428.19
2022-10-12T17:06:47.044Z,98428.77
2022-10-12T17:09:18.230Z,98428.77
2022-10-12T17:11:46.544Z,98428.97
2022-10-12T17:14:16.948Z,98426.19
2022-10-12T17:16:48.233Z,98423.77
2022-10-12T17:19:41.011Z,98425.86
2022-10-12T17:22:11.098Z,98427.16
2022-10-12T17:24:42.625Z,98426.46
2022-10-12T17:27:13.451Z,98428.71
2022-10-12T17:29:42.421Z,98430.14
2022-10-12T17:32:12.544Z,98433.05
2022-10-12T17:34:45.171Z,98432.64
2022-10-12T17:37:16.009Z,98431.29
2022-10-12T17:39:48.014Z,98429.98
2022-10-12T17:42:16.883Z,98429.36
2022-10-12T17:44:45.702Z,98429.52
2022-10-12T17:47:17.114Z,98427.39
2022-10-12T17:49:45.468Z,98428.24
2022-10-12T17:52:14.160Z,98424.64
2022-10-12T17:54:42.802Z,98425.23
2022-10-12T17:57:10.951Z,98424.76
2022-10-12T17:59:39.175Z,98428.60
2022-10-12T18:02:09.653Z,98429.69
2022-10-12T18:04:38.169Z,98424.57
2022-10-12T18:07:06.856Z,98427.02
2022-10-12T18:09:35.109Z,98429.63
2022-10-12T18:12:04.366Z,98427.20
2022-10-12T18:14:33.772Z,98422.13
2022-10-12T18:17:02.872Z,98418.73
2022-10-12T18:19:32.612Z,98417.26
2022-10-12T18:22:00.896Z,98420.52
2022-10-12T18:24:29.104Z,98424.52
2022-10-12T18:26:57.154Z,98427.84
2022-10-12T18:29:28.260Z,98430.28
2022-10-12T18:31:59.771Z,98434.73
2022-10-12T18:34:33.019Z,98437.33
2022-10-12T18:37:07.067Z,98439.41
2022-10-12T18:39:35.673Z,98438.52
2022-10-12T18:42:03.787Z,98438.38
2022-10-12T18:44:31.846Z,98437.80
2022-10-12T18:46:59.908Z,98437.71
2022-10-12T18:49:28.342Z,98437.49
2022-10-12T18:51:56.478Z,98438.59
2022-10-12T18:54:25.785Z,98438.23
2022-10-12T18:56:54.037Z,98440.88
2022-10-12T18:59:23.421Z,98440.29
2022-10-12T19:01:51.894Z,98439.98
2022-10-12T19:04:23.797Z,98441.34
2022-10-12T19:06:56.960Z,98442.77
2022-10-12T19:09:25.843Z,98444.73
2022-10-12T19:11:54.221Z,98446.89
2022-10-12T19:14:22.938Z,98448.10
2022-10-12T19:16:51.640Z,98448.64
2022-10-12T19:19:22.924Z,98445.04
2022-10-12T19:21:52.444Z,98447.56
2022-10-12T19:24:21.768Z,98449.78
2022-10-12T19:26:50.153Z,98452.95
2022-10-12T19:29:18.325Z,98455.38
2022-10-12T19:31:49.531Z,98454.44
2022-10-12T19:34:19.737Z,98457.77
2022-10-12T19:36:48.840Z,98462.91
2022-10-12T19:39:22.582Z,98471.31
2022-10-12T19:41:52.086Z,98471.10
2022-10-12T19:44:20.867Z,98471.95
2022-10-12T19:46:49.688Z,98470.70
2022-10-12T19:49:18.936Z,98469.55
2022-10-12T19:51:47.892Z,98468.73
2022-10-12T19:54:16.647Z,98469.95
2022-10-12T19:56:45.149Z,98470.89
2022-10-12T19:59:14.044Z,98472.45
2022-10-12T20:01:47.946Z,98472.28
2022-10-12T20:04:17.013Z,98473.84
2022-10-12T20:06:45.555Z,98474.53
2022-10-12T20:09:13.737Z,98478.29
2022-10-12T20:11:42.476Z,98477.33
2022-10-12T20:14:10.647Z,98475.09
2022-10-12T20:16:38.689Z,98477.84
2022-10-12T20:19:08.356Z,98479.00
2022-10-12T20:21:39.185Z,98476.06
2022-10-12T20:24:10.107Z,98472.20
2022-10-12T20:26:38.269Z,98473.23
2022-10-12T20:29:06.684Z,98474.21
2022-10-12T20:31:34.910Z,98471.30
2022-10-12T20:34:02.930Z,98473.18
2022-10-12T20:36:31.716Z,98476.69
2022-10-12T20:39:00.030Z,98476.36
2022-10-12T20:41:29.619Z,98476.88
2022-10-12T20:43:59.726Z,98476.23
2022-10-12T20:46:29.958Z,98475.48
2022-10-12T20:49:00.796Z,98475.73
2022-10-12T20:51:31.921Z,98478.24
2022-10-12T20:54:01.544Z,98482.72
2022-10-12T20:56:32.448Z,98487.62
2022-10-12T20:59:02.121Z,98490.35
2022-10-12T21:01:30.140Z,98488.60
2022-10-12T21:03:58.464Z,98492.11
2022-10-12T21:06:28.791Z,98491.68
2022-10-12T21:08:58.362Z,98487.06
2022-10-12T21:11:28.222Z,98485.53
2022-10-12T21:13:58.482Z,98484.27
2022-10-12T21:16:27.350Z,98482.64
2022-10-12T21:18:56.213Z,98485.90
2022-10-12T21:21:25.733Z,98485.83
2022-10-12T21:23:56.842Z,98484.29
2022-10-12T21:26:29.440Z,98489.66
2022-10-12T21:28:59.674Z,98487.71
2022-10-12T21:31:32.279Z,98484.45
2022-10-12T21:34:02.879Z,98483.19
2022-10-12T21:36:32.512Z,98474.23
2022-10-12T21:39:09.001Z,98473.05
2022-10-12T21:41:36.919Z,98474.11
2022-10-12T21:44:06.172Z,98473.50
2022-10-12T21:46:35.464Z,98473.73
2022-10-12T21:49:08.075Z,98473.38
2022-10-12T21:51:37.328Z,98469.44
2022-10-12T21:54:06.748Z,98468.67
2022-10-12T21:56:36.701Z,98469.99
2022-10-12T21:59:05.785Z,98468.98
2022-10-12T22:01:36.990Z,98464.92
2022-10-12T22:04:08.294Z,98464.98
2022-10-12T22:06:36.309Z,98460.90
2022-10-12T22:09:08.522Z,98458.38
2022-10-12T22:11:37.377Z,98460.39
2022-10-12T22:14:11.468Z,98461.10
2022-10-12T22:16:40.451Z,98459.45
2022-10-12T22:19:09.286Z,98455.59
2022-10-12T22:21:37.497Z,98452.77
2022-10-12T22:24:06.175Z,98455.91
2022-10-12T22:26:35.289Z,98457.36
2022-10-12T22:29:07.437Z,98462.69
2022-10-12T22:31:37.509Z,98461.92
2022-10-12T22:34:05.558Z,98463.27
2022-10-12T22:36:34.414Z,98462.31
2022-10-12T22:39:04.747Z,98460.09
2022-10-12T22:41:32.909Z,98457.71
2022-10-12T22:44:00.799Z,98451.13
2022-10-12T22:46:28.962Z,98450.99
2022-10-12T22:48:57.138Z,98448.76
2022-10-12T22:51:34.668Z,98452.50
2022-10-12T22:54:03.554Z,98452.05
2022-10-12T22:56:31.953Z,98446.92
2022-10-12T22:59:03.949Z,98449.33
2022-10-12T23:01:32.208Z,98450.26
2022-10-12T23:04:00.304Z,98451.04
2022-10-12T23:06:28.309Z,98456.05
2022-10-12T23:08:56.565Z,98460.09
2022-10-12T23:11:27.456Z,98459.14
2022-10-12T23:13:57.338Z,98454.45
2022-10-12T23:16:28.376Z,98452.17
2022-10-12T23:19:02.239Z,98450.90
2022-10-12T23:21:31.843Z,98454.84
2022-10-12T23:24:00.844Z,98451.31
2022-10-12T23:26:29.384Z,98450.79
2022-10-12T23:28:57.376Z,98455.08
2022-10-12T23:31:28.416Z,98457.86
2022-10-12T23:34:02.523Z,98449.62
2022-10-12T23:36:31.727Z,98446.31
2022-10-12T23:39:01.384Z,98446.11
2022-10-12T23:41:29.336Z,98445.39
2022-10-12T23:43:57.381Z,98444.10
2022-10-12T23:46:26.422Z,98443.20
2022-10-12T23:48:56.437Z,98445.59
2022-10-12T23:51:24.483Z,98445.03
2022-10-12T23:53:52.382Z,98442.61
2022-10-12T23:56:22.946Z,98441.30
2022-10-12T23:58:51.114Z,98440.49
